Time;durP1;ratioP1;P1;durP2;ratioP2;P2;SDS_P1;SDS_P2;PMS_P1;PMS_P2;Temp;Humidity;BMP_temperature;BMP_pressure;BME280_temperature;BME280_humidity;BME280_pressure;Samples;Min_cycle;Max_cycle;Signal;HPM_P1;HPM_P2
2023/04/29 07:07:01;;;;;;;;;0.00;0.00;;;;;;;;6235163;22;50137;-79
2023/04/29 07:09:27;;;;;;;;;0.00;0.00;;;;;;;;6235346;22;49622;-79
2023/04/29 07:11:53;;;;;;;;;0.00;0.00;;;;;;;;6232832;22;49728;-76
2023/04/29 07:14:18;;;;;;;;;0.00;0.00;;;;;;;;6232395;22;49587;-74
2023/04/29 07:16:43;;;;;;;;;0.00;0.00;;;;;;;;6232747;22;51548;-74
2023/04/29 07:19:09;;;;;;;;;0.00;0.00;;;;;;;;6234015;22;49879;-73
2023/04/29 07:21:34;;;;;;;;;0.75;0.25;;;;;;;;6233956;22;49650;-74
2023/04/29 07:24:01;;;;;;;;;4.75;4.75;;;;;;;;6234412;22;49947;-76
2023/04/29 07:26:26;;;;;;;;;0.00;0.00;;;;;;;;6234058;22;50528;-77
2023/04/29 07:28:51;;;;;;;;;0.00;0.00;;;;;;;;6234233;22;49600;-77
2023/04/29 07:31:17;;;;;;;;;0.00;0.00;;;;;;;;6234390;22;49874;-77
2023/04/29 07:33:43;;;;;;;;;0.00;0.00;;;;;;;;6234451;22;49488;-75
2023/04/29 07:36:10;;;;;;;;;1.25;0.00;;;;;;;;6233951;22;50099;-74
2023/04/29 07:38:35;;;;;;;;;0.00;0.00;;;;;;;;6234495;22;49882;-75
2023/04/29 07:41:02;;;;;;;;;0.00;0.00;;;;;;;;6234708;22;49847;-75
2023/04/29 07:43:27;;;;;;;;;1.00;0.00;;;;;;;;6234425;22;50073;-75
2023/04/29 07:45:52;;;;;;;;;0.00;0.00;;;;;;;;6234315;22;50195;-75
2023/04/29 07:48:17;;;;;;;;;0.00;0.00;;;;;;;;6234474;22;50011;-74
2023/04/29 07:50:43;;;;;;;;;0.00;0.00;;;;;;;;6234649;22;49639;-74
2023/04/29 07:53:08;;;;;;;;;0.75;0.75;;;;;;;;6206953;22;49947;-75
2023/04/29 07:55:35;;;;;;;;;0.25;0.25;;;;;;;;6234265;22;49916;-75
2023/04/29 07:58:01;;;;;;;;;0.00;0.00;;;;;;;;6234412;22;49606;-75
2023/04/29 08:00:27;;;;;;;;;0.00;0.00;;;;;;;;6233762;22;49639;-75
2023/04/29 08:02:53;;;;;;;;;2.50;2.50;;;;;;;;6205808;22;49497;-74
2023/04/29 08:05:20;;;;;;;;;0.00;0.00;;;;;;;;6233676;22;50106;-74
2023/04/29 08:07:45;;;;;;;;;0.00;0.00;;;;;;;;6207491;22;49994;-74
2023/04/29 08:10:10;;;;;;;;;0.00;0.00;;;;;;;;6233383;22;49947;-75
2023/04/29 08:12:36;;;;;;;;;9.75;9.75;;;;;;;;6233565;22;49786;-74
2023/04/29 08:15:01;;;;;;;;;0.00;0.00;;;;;;;;6233414;22;51165;-74
2023/04/29 08:17:26;;;;;;;;;2.00;2.00;;;;;;;;6234341;22;49650;-83
2023/04/29 08:19:52;;;;;;;;;0.00;0.00;;;;;;;;6235171;22;50052;-78
2023/04/29 08:22:17;;;;;;;;;0.00;0.00;;;;;;;;6234979;22;49572;-82
2023/04/29 08:24:43;;;;;;;;;0.00;0.00;;;;;;;;6234442;22;49776;-75
2023/04/29 08:27:09;;;;;;;;;0.00;0.00;;;;;;;;6207764;22;49723;-72
2023/04/29 08:29:34;;;;;;;;;0.00;0.00;;;;;;;;6207165;22;49497;-77
2023/04/29 08:32:00;;;;;;;;;3.00;3.00;;;;;;;;6235112;22;49741;-76
2023/04/29 08:34:25;;;;;;;;;0.00;0.00;;;;;;;;6233952;22;49911;-73
2023/04/29 08:36:50;;;;;;;;;0.00;0.00;;;;;;;;6232860;22;49964;-79
2023/04/29 08:39:16;;;;;;;;;0.00;0.00;;;;;;;;6235731;22;49666;-73
2023/04/29 08:41:44;;;;;;;;;0.00;0.00;;;;;;;;6235300;22;49979;-77
2023/04/29 08:44:09;;;;;;;;;0.00;0.00;;;;;;;;6235043;22;50772;-78
2023/04/29 08:46:34;;;;;;;;;0.00;0.00;;;;;;;;6235472;22;50018;-81
2023/04/29 08:49:02;;;;;;;;;7.50;3.00;;;;;;;;6235254;22;49571;-80
2023/04/29 08:51:27;;;;;;;;;0.00;0.00;;;;;;;;6235425;22;50021;-79
2023/04/29 08:53:53;;;;;;;;;0.00;0.00;;;;;;;;6235108;22;50830;-81
2023/04/29 08:56:22;;;;;;;;;0.00;0.00;;;;;;;;6234787;22;49970;-82
2023/04/29 08:58:53;;;;;;;;;0.00;0.00;;;;;;;;6234902;22;49617;-83
2023/04/29 09:01:18;;;;;;;;;1.00;1.00;;;;;;;;6234968;22;49974;-82
2023/04/29 09:03:49;;;;;;;;;0.00;0.00;;;;;;;;6234530;22;51241;-82
2023/04/29 09:06:14;;;;;;;;;0.00;0.00;;;;;;;;6234795;22;49651;-80
2023/04/29 09:08:40;;;;;;;;;0.00;0.00;;;;;;;;6235073;22;49582;-81
2023/04/29 09:11:07;;;;;;;;;0.00;0.00;;;;;;;;6234754;22;50013;-79
2023/04/29 09:13:33;;;;;;;;;0.00;0.00;;;;;;;;6235929;22;51473;-88
2023/04/29 09:15:58;;;;;;;;;0.00;0.00;;;;;;;;6235095;22;49626;-81
2023/04/29 19:53:16;;;;;;;;;25.00;21.25;;;;;;;;4666737;22;51904;-70
2023/04/29 19:55:42;;;;;;;;;27.25;21.75;;;;;;;;6209629;22;50112;-69
2023/04/29 19:58:07;;;;;;;;;20.25;19.75;;;;;;;;6237165;22;49638;-69
2023/04/29 20:00:32;;;;;;;;;15.00;15.00;;;;;;;;6236930;22;50272;-69
2023/04/29 20:02:57;;;;;;;;;23.50;23.00;;;;;;;;6236910;22;49709;-69
2023/04/29 20:05:23;;;;;;;;;21.00;20.00;;;;;;;;6237379;22;49817;-70
2023/04/29 20:07:48;;;;;;;;;20.50;19.25;;;;;;;;6236898;22;49596;-70
2023/04/29 20:10:14;;;;;;;;;24.25;23.25;;;;;;;;6208523;22;50386;-71
2023/04/29 20:12:40;;;;;;;;;23.50;21.50;;;;;;;;6236704;22;49827;-71
2023/04/29 20:15:05;;;;;;;;;22.50;21.00;;;;;;;;6236850;22;49904;-71
2023/04/29 20:17:31;;;;;;;;;27.25;23.50;;;;;;;;6237312;22;49998;-71
2023/04/29 20:19:56;;;;;;;;;22.00;22.00;;;;;;;;6236646;22;50318;-71
2023/04/29 20:22:21;;;;;;;;;26.50;25.00;;;;;;;;6237133;22;50122;-71
2023/04/29 20:24:46;;;;;;;;;25.00;21.75;;;;;;;;6234857;22;49633;-71
2023/04/29 20:27:11;;;;;;;;;22.50;21.00;;;;;;;;6235431;22;49983;-71
2023/04/29 20:29:37;;;;;;;;;23.75;22.50;;;;;;;;6235117;22;50162;-71
2023/04/29 20:32:03;;;;;;;;;29.50;24.75;;;;;;;;6235177;22;50159;-70
2023/04/29 20:34:28;;;;;;;;;24.25;24.25;;;;;;;;6234858;22;49791;-71
2023/04/29 20:36:53;;;;;;;;;25.75;22.25;;;;;;;;6233891;22;50240;-68
2023/04/29 20:39:19;;;;;;;;;29.25;22.00;;;;;;;;6234621;22;49728;-71
2023/04/29 20:41:44;;;;;;;;;28.00;23.25;;;;;;;;6234723;22;49673;-71
2023/04/29 20:44:09;;;;;;;;;31.00;26.00;;;;;;;;6207635;22;49831;-71
2023/04/29 20:46:35;;;;;;;;;25.50;25.25;;;;;;;;6235152;22;49876;-71
2023/04/29 20:49:00;;;;;;;;;26.25;25.00;;;;;;;;6234785;22;49963;-71
2023/04/29 20:51:25;;;;;;;;;35.00;33.00;;;;;;;;6235019;22;49742;-70
2023/04/29 20:53:51;;;;;;;;;29.00;28.25;;;;;;;;6232915;22;49689;-70
2023/04/29 20:56:16;;;;;;;;;21.75;19.25;;;;;;;;6234812;22;49614;-70
2023/04/29 20:58:41;;;;;;;;;28.00;26.00;;;;;;;;6207381;22;50731;-70
2023/04/29 21:01:06;;;;;;;;;23.25;23.25;;;;;;;;6234449;22;49707;-70
2023/04/29 21:03:32;;;;;;;;;27.00;23.25;;;;;;;;6234578;22;49779;-70
2023/04/29 21:05:57;;;;;;;;;23.00;21.75;;;;;;;;6235278;22;49638;-70
2023/04/29 21:08:22;;;;;;;;;22.50;22.00;;;;;;;;6234309;22;49678;-71
2023/04/29 21:10:48;;;;;;;;;26.00;23.25;;;;;;;;6233722;22;49622;-70
2023/04/29 21:13:13;;;;;;;;;27.40;23.40;;;;;;;;6235353;22;49796;-70
2023/04/29 21:15:38;;;;;;;;;27.75;25.25;;;;;;;;6235066;22;49636;-70
2023/04/29 21:18:04;;;;;;;;;25.25;22.50;;;;;;;;6234663;22;49955;-70
2023/04/29 21:20:30;;;;;;;;;28.25;24.25;;;;;;;;6232220;22;49680;-73
2023/04/29 21:22:55;;;;;;;;;28.00;23.75;;;;;;;;6234884;22;50124;-71
2023/04/29 21:25:20;;;;;;;;;21.75;21.75;;;;;;;;6234706;22;49963;-71
2023/04/29 21:27:45;;;;;;;;;30.75;25.00;;;;;;;;6234726;22;50545;-70
2023/04/29 21:30:11;;;;;;;;;27.75;24.25;;;;;;;;6234527;22;49975;-71
2023/04/29 21:32:36;;;;;;;;;27.25;25.25;;;;;;;;6234411;22;49587;-71
2023/04/29 21:35:02;;;;;;;;;25.25;23.50;;;;;;;;6234365;22;49609;-71
